Time;durP1;ratioP1;P1;durP2;ratioP2;P2;SDS_P1;SDS_P2;PMS_P1;PMS_P2;Temp;Humidity;BMP_temperature;BMP_pressure;BME280_temperature;BME280_humidity;BME280_pressure;Samples;Min_cycle;Max_cycle;Signal;HPM_P1;HPM_P2
2022/08/30 00:01:05;;;;;;;9.85;5.37;;;;;;;13.38;77.80;100586.13;2185764;79;21016;-66
2022/08/30 00:04:07;;;;;;;7.15;4.95;;;;;;;13.40;77.95;100590.79;2190896;80;20970;-66
2022/08/30 00:07:08;;;;;;;8.78;4.20;;;;;;;13.38;77.62;100584.79;2191949;80;20942;-66
2022/08/30 00:10:09;;;;;;;7.92;4.12;;;;;;;13.31;77.32;100585.65;2164282;80;20990;-68
2022/08/30 00:13:12;;;;;;;7.53;5.20;;;;;;;13.22;77.28;100585.65;2192962;79;21023;-68
2022/08/30 00:16:14;;;;;;;8.28;5.10;;;;;;;13.22;78.05;100586.98;2194982;80;21074;-66
2022/08/30 00:19:15;;;;;;;12.03;6.10;;;;;;;13.27;78.40;100591.02;2187925;80;21034;-66
2022/08/30 00:22:16;;;;;;;10.85;5.60;;;;;;;13.26;78.50;100588.00;2194172;79;21042;-67
2022/08/30 00:25:18;;;;;;;12.07;5.05;;;;;;;13.19;78.37;100595.32;2198266;79;20952;-67
2022/08/30 00:28:19;;;;;;;9.78;6.00;;;;;;;13.07;78.49;100601.20;2188124;79;20947;-66
2022/08/30 00:31:20;;;;;;;13.22;6.17;;;;;;;12.96;78.84;100599.23;2190511;80;20990;-66
2022/08/30 00:34:21;;;;;;;15.60;6.20;;;;;;;12.92;79.15;100597.06;2193442;80;21002;-66
2022/08/30 00:37:23;;;;;;;8.23;5.62;;;;;;;12.93;79.33;100598.23;2198317;79;21006;-67
2022/08/30 00:40:25;;;;;;;13.72;6.62;;;;;;;12.95;79.46;100597.58;2196127;80;20968;-67
2022/08/30 00:43:32;;;;;;;9.65;6.50;;;;;;;12.97;79.67;100594.22;2205612;80;21484;-67
2022/08/30 00:46:34;;;;;;;12.70;5.72;;;;;;;12.97;79.57;100596.06;2196073;79;21406;-67
2022/08/30 00:49:37;;;;;;;8.40;6.15;;;;;;;12.98;79.65;100596.41;2193571;79;21023;-67
2022/08/30 00:52:42;;;;;;;8.43;6.03;;;;;;;12.94;79.50;100593.73;2201158;80;21944;-67
2022/08/30 00:55:44;;;;;;;15.60;5.35;;;;;;;12.94;79.46;100590.56;2188169;79;21008;-67
2022/08/30 00:58:49;;;;;;;11.60;6.50;;;;;;;12.94;79.47;100583.91;2191767;79;21469;-67
2022/08/30 01:01:52;;;;;;;14.13;7.00;;;;;;;12.95;79.61;100585.59;2196078;80;21048;-66
2022/08/30 01:04:54;;;;;;;10.63;6.35;;;;;;;12.95;79.50;100581.59;2196584;79;20970;-67
2022/08/30 01:07:55;;;;;;;14.45;6.10;;;;;;;12.96;79.59;100583.75;2195975;79;21583;-67
2022/08/30 01:10:57;;;;;;;13.53;6.75;;;;;;;12.96;79.60;100582.42;2197635;79;21002;-67
2022/08/30 01:13:59;;;;;;;12.25;7.08;;;;;;;12.98;79.78;100583.09;2198648;79;21022;-66
2022/08/30 01:17:01;;;;;;;12.43;7.25;;;;;;;13.00;80.01;100586.39;2196643;80;21029;-67
2022/08/30 01:20:13;;;;;;;14.15;7.40;;;;;;;13.03;80.18;100583.38;2198266;79;20954;-66
2022/08/30 01:23:17;;;;;;;12.23;7.00;;;;;;;13.05;80.21;100585.89;2192005;79;21019;-67
2022/08/30 01:26:19;;;;;;;14.87;7.78;;;;;;;13.03;80.20;100582.56;2197070;79;21062;-66
2022/08/30 01:29:26;;;;;;;12.82;7.12;;;;;;;13.04;80.33;100582.40;2194832;80;21052;-67
2022/08/30 01:32:28;;;;;;;13.45;6.97;;;;;;;13.04;80.10;100580.24;2195076;79;21454;-67
2022/08/30 01:35:51;;;;;;;14.53;7.40;;;;;;;12.99;80.00;100581.57;2192746;79;21539;-67
2022/08/30 01:38:55;;;;;;;13.50;7.45;;;;;;;13.00;80.11;100587.72;2192169;80;21041;-66
2022/08/30 01:41:57;;;;;;;11.83;7.40;;;;;;;12.98;80.14;100587.09;2194838;80;21093;-66
2022/08/30 01:44:58;;;;;;;17.05;6.97;;;;;;;13.00;80.52;100589.87;2191725;79;21053;-67
2022/08/30 01:47:59;;;;;;;12.13;6.83;;;;;;;13.01;80.39;100588.08;2188480;79;21029;-67
2022/08/30 01:51:00;;;;;;;11.70;6.97;;;;;;;12.98;80.18;100581.76;2193287;80;21485;-67
2022/08/30 01:54:02;;;;;;;12.60;7.40;;;;;;;12.94;80.19;100589.23;2188928;79;20948;-66
2022/08/30 01:57:05;;;;;;;9.68;7.37;;;;;;;12.92;80.23;100587.74;2187640;79;21553;-66
2022/08/30 02:00:10;;;;;;;13.30;7.75;;;;;;;12.90;80.42;100585.27;2195098;80;21016;-67
2022/08/30 02:03:14;;;;;;;17.70;9.30;;;;;;;12.90;80.44;100589.77;2194727;79;20981;-67
2022/08/30 02:06:18;;;;;;;11.05;8.33;;;;;;;12.93;80.95;100592.09;2192619;79;21504;-67
2022/08/30 02:09:19;;;;;;;13.72;8.43;;;;;;;12.94;80.88;100592.41;2193237;79;21045;-68
2022/08/30 02:12:20;;;;;;;10.10;7.80;;;;;;;12.95;80.92;100598.05;2197889;79;20962;-67
2022/08/30 02:15:21;;;;;;;12.25;7.78;;;;;;;12.95;80.96;100593.58;2191756;80;20999;-67
2022/08/30 02:18:25;;;;;;;23.70;8.33;;;;;;;12.94;80.85;100590.56;2192438;80;20991;-67
2022/08/30 02:21:26;;;;;;;14.55;7.92;;;;;;;12.93;80.83;100594.75;2195401;80;20951;-67
2022/08/30 02:24:27;;;;;;;13.90;8.58;;;;;;;12.87;80.60;100591.44;2194030;80;20945;-66
2022/08/30 02:27:28;;;;;;;20.65;8.53;;;;;;;12.86;80.78;100596.42;2191742;79;20931;-67
2022/08/30 02:30:30;;;;;;;13.20;7.42;;;;;;;12.87;80.86;100596.27;2190739;79;21074;-67
2022/08/30 02:33:31;;;;;;;13.55;8.03;;;;;;;12.87;80.63;100600.77;2194089;80;20994;-67
2022/08/30 02:36:32;;;;;;;12.98;7.03;;;;;;;12.86;80.76;100603.08;2189925;79;21092;-66
2022/08/30 02:39:33;;;;;;;18.32;8.98;;;;;;;12.84;80.73;100600.59;2192251;79;21042;-68
2022/08/30 02:42:34;;;;;;;16.67;8.90;;;;;;;12.84;80.81;100603.27;2192224;80;21047;-67
2022/08/30 02:45:35;;;;;;;13.15;8.03;;;;;;;12.81;80.82;100601.42;2195689;79;21501;-68
2022/08/30 02:48:36;;;;;;;14.87;8.73;;;;;;;12.80;80.82;100593.94;2191293;79;20967;-66
2022/08/30 02:51:38;;;;;;;16.55;8.65;;;;;;;12.79;81.02;100593.61;2194704;80;21021;-68
2022/08/30 02:54:39;;;;;;;15.23;8.78;;;;;;;12.80;81.19;100593.94;2194578;80;21054;-66
2022/08/30 02:57:40;;;;;;;22.75;9.83;;;;;;;12.83;81.44;100598.09;2163860;80;20979;-67
2022/08/30 03:00:41;;;;;;;15.00;9.38;;;;;;;12.84;81.51;100583.77;2190008;79;20935;-67
2022/08/30 03:03:44;;;;;;;12.53;9.65;;;;;;;12.87;81.71;100588.78;2194093;79;22048;-67
2022/08/30 03:06:45;;;;;;;14.85;10.60;;;;;;;12.90;81.82;100594.59;2188761;79;21037;-67
2022/08/30 03:09:46;;;;;;;18.35;11.63;;;;;;;12.94;82.05;100596.41;2192569;80;21009;-66
2022/08/30 03:12:47;;;;;;;17.52;11.43;;;;;;;12.99;82.28;100601.55;2194637;80;20956;-67
2022/08/30 03:15:49;;;;;;;18.00;12.15;;;;;;;13.06;82.64;100607.02;2194786;79;21058;-67
2022/08/30 03:18:50;;;;;;;19.55;12.40;;;;;;;13.10;82.96;100603.53;2192723;80;20979;-67
2022/08/30 03:21:51;;;;;;;19.52;11.65;;;;;;;13.13;83.02;100612.51;2185667;79;20973;-67
2022/08/30 03:24:52;;;;;;;18.52;11.78;;;;;;;13.17;83.24;100617.81;2192270;79;20951;-67
2022/08/30 03:27:53;;;;;;;17.07;12.13;;;;;;;13.23;83.26;100613.13;2191440;79;21011;-67
2022/08/30 03:30:55;;;;;;;17.10;11.70;;;;;;;13.23;83.28;100608.65;2190707;79;21470;-67
2022/08/30 03:33:56;;;;;;;15.63;11.45;;;;;;;13.24;83.32;100606.30;2197340;79;21074;-67
2022/08/30 03:37:00;;;;;;;18.12;11.90;;;;;;;13.24;83.41;100606.30;2189625;80;21457;-66
2022/08/30 03:40:03;;;;;;;18.07;12.40;;;;;;;13.28;83.62;100616.64;2190136;79;20995;-67
2022/08/30 03:43:04;;;;;;;15.55;10.60;;;;;;;13.33;83.68;100623.13;2194036;79;20971;-66
2022/08/30 03:46:06;;;;;;;15.95;11.43;;;;;;;13.37;83.66;100616.94;2187739;80;20975;-67
2022/08/30 03:49:07;;;;;;;16.87;11.78;;;;;;;13.40;83.74;100621.44;2188444;79;21069;-67
2022/08/30 03:52:09;;;;;;;19.82;12.90;;;;;;;13.43;83.76;100623.76;2195919;79;21034;-66
2022/08/30 03:55:10;;;;;;;16.60;12.43;;;;;;;13.44;83.78;100626.74;2191940;79;21021;-68
2022/08/30 03:58:11;;;;;;;20.68;12.70;;;;;;;13.47;83.90;100618.08;2196742;79;21055;-66
2022/08/30 04:01:12;;;;;;;17.87;12.45;;;;;;;13.50;83.92;100613.22;2194117;80;20995;-67
2022/08/30 04:04:14;;;;;;;17.87;12.65;;;;;;;13.52;83.82;100618.39;2191529;80;20999;-66
2022/08/30 04:07:15;;;;;;;22.60;14.43;;;;;;;13.54;83.78;100621.70;2194934;79;21469;-67
2022/08/30 04:10:16;;;;;;;19.90;13.72;;;;;;;13.53;83.85;100618.20;2189519;80;21010;-67
2022/08/30 04:13:17;;;;;;;17.73;13.70;;;;;;;13.52;83.85;100617.06;2151091;81;21523;-67
2022/08/30 04:16:19;;;;;;;18.73;13.22;;;;;;;13.51;83.93;100619.38;2153525;82;20958;-70
2022/08/30 04:19:20;;;;;;;18.42;13.98;;;;;;;13.52;84.01;100620.55;2120210;83;20963;-66
2022/08/30 04:22:21;;;;;;;25.40;15.18;;;;;;;13.55;84.18;100624.20;2149939;82;21041;-67
2022/08/30 04:25:22;;;;;;;18.87;13.62;;;;;;;13.59;84.34;100627.34;2120198;83;20992;-67
2022/08/30 04:28:23;;;;;;;22.80;14.75;;;;;;;13.61;84.48;100628.83;2118128;83;21055;-67
2022/08/30 04:31:25;;;;;;;18.20;13.80;;;;;;;13.65;84.59;100626.13;2152488;81;21517;-67
2022/08/30 04:34:26;;;;;;;19.20;13.05;;;;;;;13.69;84.60;100633.30;2152853;81;21080;-66
2022/08/30 04:37:27;;;;;;;19.57;14.58;;;;;;;13.73;84.70;100634.60;2116065;83;20957;-68
2022/08/30 04:40:28;;;;;;;22.10;13.28;;;;;;;13.77;84.80;100638.59;2151439;81;21001;-67
2022/08/30 04:43:30;;;;;;;20.80;13.10;;;;;;;13.88;85.05;100643.54;2147318;81;21431;-67
2022/08/30 04:46:31;;;;;;;16.23;12.93;;;;;;;13.99;85.05;100641.45;2150708;82;21015;-67
2022/08/30 04:49:32;;;;;;;16.62;13.13;;;;;;;14.12;85.06;100641.72;2148432;81;21462;-67
2022/08/30 04:52:33;;;;;;;19.27;12.70;;;;;;;14.34;85.28;100638.73;2145517;82;20997;-67
2022/08/30 04:55:34;;;;;;;17.48;12.40;;;;;;;14.60;84.96;100641.05;2148779;81;21466;-67
2022/08/30 04:58:35;;;;;;;16.82;12.50;;;;;;;14.75;84.69;100643.27;2147951;82;21004;-66
2022/08/30 05:01:36;;;;;;;16.30;12.43;;;;;;;14.97;84.76;100642.85;2144677;82;20967;-68
2022/08/30 05:05:38;;;;;;;18.55;12.60;;;;;;;15.24;84.63;100639.25;2150963;82;21055;-67
2022/08/30 05:07:40;;;;;;;15.43;11.50;;;;;;;15.79;84.73;100642.43;2138356;82;21463;-68
2022/08/30 05:10:48;;;;;;;16.30;10.78;;;;;;;16.15;83.73;100649.11;2153692;82;21451;-67
2022/08/30 05:13:49;;;;;;;16.52;11.15;;;;;;;16.14;82.93;100644.27;2146744;82;20996;-67
2022/08/30 05:16:50;;;;;;;15.25;11.28;;;;;;;16.21;82.71;100647.52;2145288;81;21027;-67
2022/08/30 05:19:51;;;;;;;13.58;11.12;;;;;;;16.25;82.42;100652.83;2148157;81;21557;-67
2022/08/30 05:22:52;;;;;;;17.07;10.78;;;;;;;16.27;82.15;100645.41;2144357;81;20992;-68
2022/08/30 05:25:53;;;;;;;17.20;11.28;;;;;;;16.43;82.17;100645.16;2143242;82;21012;-69
2022/08/30 05:28:56;;;;;;;14.58;11.28;;;;;;;16.45;81.56;100652.50;2144235;82;20968;-69
2022/08/30 05:31:57;;;;;;;15.80;11.48;;;;;;;16.43;81.50;100655.05;2127150;82;21035;-71
2022/08/30 05:34:59;;;;;;;14.10;10.53;;;;;;;16.31;81.23;100650.72;2148671;81;21511;-69
2022/08/30 05:38:00;;;;;;;15.88;12.20;;;;;;;16.34;81.38;100655.69;2150093;82;21033;-69
2022/08/30 05:41:01;;;;;;;17.62;11.38;;;;;;;16.31;81.37;100657.41;2158895;80;21540;-69
2022/08/30 05:44:05;;;;;;;18.37;12.18;;;;;;;16.30;81.34;100659.75;2146825;82;21488;-69
2022/08/30 05:47:06;;;;;;;18.00;12.63;;;;;;;16.29;81.57;100666.14;2148391;81;21015;-70
2022/08/30 05:50:08;;;;;;;17.02;12.23;;;;;;;16.33;81.62;100662.05;2150525;81;21025;-67
2022/08/30 05:53:09;;;;;;;15.72;11.48;;;;;;;16.34;81.59;100658.38;2147737;82;21012;-70
2022/08/30 05:56:14;;;;;;;17.50;11.63;;;;;;;16.32;81.55;100661.73;2152248;81;21035;-68
2022/08/30 05:59:15;;;;;;;20.15;12.07;;;;;;;16.28;81.60;100666.66;2147344;81;20986;-68
2022/08/30 06:02:17;;;;;;;13.43;10.60;;;;;;;16.31;81.65;100668.13;2118906;82;21049;-69
2022/08/30 06:05:18;;;;;;;14.85;12.30;;;;;;;16.32;81.73;100666.58;2164664;80;21081;-70
2022/08/30 06:08:20;;;;;;;14.18;11.70;;;;;;;16.38;81.90;100666.84;2191987;80;20981;-69
2022/08/30 06:11:24;;;;;;;17.25;12.07;;;;;;;16.42;82.14;100660.92;2196054;80;20983;-70
2022/08/30 06:14:25;;;;;;;19.70;13.10;;;;;;;16.46;82.11;100662.18;2190302;80;20959;-69
2022/08/30 06:17:26;;;;;;;18.82;13.15;;;;;;;16.54;82.16;100665.25;2192428;80;20986;-69
2022/08/30 06:20:27;;;;;;;23.83;12.47;;;;;;;16.59;82.21;100664.16;2188032;80;21080;-69
2022/08/30 06:23:29;;;;;;;14.43;12.85;;;;;;;16.71;82.34;100667.14;2195141;79;20967;-69
2022/08/30 06:26:31;;;;;;;16.60;12.43;;;;;;;16.79;82.35;100661.68;2190926;79;21457;-68
2022/08/30 06:29:31;;;;;;;16.02;12.78;;;;;;;16.89;82.43;100670.19;2198238;79;20986;-68
2022/08/30 06:32:33;;;;;;;22.73;13.68;;;;;;;16.99;82.29;100670.69;2203552;79;21003;-69
2022/08/30 06:35:35;;;;;;;18.35;13.65;;;;;;;17.09;82.31;100676.21;2191155;80;21086;-68
2022/08/30 06:38:37;;;;;;;24.80;14.38;;;;;;;17.17;82.23;100681.42;2193541;79;20994;-69
2022/08/30 06:41:40;;;;;;;16.97;13.68;;;;;;;17.27;82.26;100677.07;2196011;79;20989;-68
2022/08/30 06:44:44;;;;;;;19.05;13.30;;;;;;;17.33;82.15;100677.62;2192873;79;20981;-69
2022/08/30 06:47:46;;;;;;;17.48;13.30;;;;;;;17.36;82.03;100682.06;2167232;80;21485;-68
2022/08/30 06:50:53;;;;;;;18.82;13.60;;;;;;;17.38;81.96;100682.70;2190208;80;21465;-69
2022/08/30 06:53:55;;;;;;;20.40;13.15;;;;;;;17.44;81.93;100681.91;2191204;80;21592;-69
2022/08/30 06:56:56;;;;;;;17.25;13.40;;;;;;;17.47;81.94;100682.03;2194828;80;21038;-69
2022/08/30 06:59:58;;;;;;;18.60;13.62;;;;;;;17.51;82.04;100683.79;2190130;79;21003;-69
2022/08/30 07:03:00;;;;;;;18.90;13.60;;;;;;;17.54;82.03;100682.91;2193991;80;21839;-69
2022/08/30 07:06:01;;;;;;;16.25;12.88;;;;;;;17.61;81.96;100686.95;2189659;80;21479;-70
2022/08/30 07:09:03;;;;;;;15.10;12.75;;;;;;;17.73;82.18;100684.52;2191499;80;21017;-69
2022/08/30 07:12:05;;;;;;;17.70;12.78;;;;;;;17.81;81.97;100689.23;2194869;80;21490;-71
2022/08/30 07:15:08;;;;;;;16.10;12.60;;;;;;;17.90;81.80;100689.88;2195324;80;21026;-69
2022/08/30 07:21:38;;;;;;;16.85;13.00;;;;;;;17.94;81.41;100693.02;2190402;79;21018;-69
2022/08/30 07:24:39;;;;;;;19.60;12.85;;;;;;;17.92;81.49;100687.83;2191624;79;21017;-69
2022/08/30 07:27:41;;;;;;;16.50;12.45;;;;;;;18.06;81.66;100696.24;2190563;79;21414;-69
2022/08/30 07:30:42;;;;;;;14.47;12.25;;;;;;;18.22;81.40;100696.92;2187993;80;20974;-69
2022/08/30 07:33:44;;;;;;;15.85;12.50;;;;;;;18.29;81.14;100701.78;2191457;79;20943;-70
2022/08/30 07:36:45;;;;;;;15.55;12.98;;;;;;;18.33;80.99;100704.39;2194561;80;21025;-69
2022/08/30 07:39:46;;;;;;;14.73;11.63;;;;;;;18.33;80.98;100713.27;2187583;80;21536;-69
2022/08/30 07:42:47;;;;;;;15.10;12.13;;;;;;;18.34;80.93;100709.55;2192196;80;21031;-69
2022/08/30 07:45:48;;;;;;;14.33;12.00;;;;;;;18.49;81.18;100703.98;2183863;80;21015;-69
2022/08/30 07:48:50;;;;;;;13.53;11.73;;;;;;;18.60;81.00;100702.55;2190639;80;20935;-69
2022/08/30 07:51:50;;;;;;;13.53;10.90;;;;;;;18.68;80.97;100705.56;2186397;79;20916;-69
2022/08/30 07:54:52;;;;;;;12.88;10.35;;;;;;;18.78;80.58;100700.63;2189668;79;20965;-71
2022/08/30 07:57:53;;;;;;;11.33;10.13;;;;;;;18.90;80.50;100709.74;2164364;80;21010;-69
2022/08/30 08:00:58;;;;;;;12.03;9.73;;;;;;;19.02;80.38;100706.73;2188754;79;20942;-69
2022/08/30 08:03:57;;;;;;;14.25;9.88;;;;;;;19.15;80.21;100705.08;2193853;79;21605;-68
2022/08/30 08:06:59;;;;;;;12.30;9.43;;;;;;;19.28;79.87;100709.59;2187941;79;21009;-68
2022/08/30 08:10:00;;;;;;;8.65;7.47;;;;;;;19.32;79.73;100711.67;2192775;80;20966;-69
2022/08/30 08:13:01;;;;;;;7.70;7.00;;;;;;;19.37;79.17;100715.91;2191605;80;20984;-68
2022/08/30 08:16:02;;;;;;;8.10;7.30;;;;;;;19.57;79.38;100718.55;2192317;80;20960;-70
2022/08/30 08:19:07;;;;;;;9.73;8.00;;;;;;;19.82;79.17;100716.52;2187252;79;21025;-69
2022/08/30 08:22:07;;;;;;;10.03;7.95;;;;;;;19.99;78.70;100719.55;2192730;79;21106;-69
2022/08/30 08:25:08;;;;;;;10.40;7.17;;;;;;;20.02;78.03;100725.36;2194693;79;21007;-70
2022/08/30 08:28:10;;;;;;;7.28;5.97;;;;;;;20.13;77.62;100726.53;2167892;80;21038;-70
2022/08/30 08:31:22;;;;;;;7.30;6.22;;;;;;;20.27;77.56;100731.33;2188959;79;21053;-69
2022/08/30 08:34:23;;;;;;;10.25;6.62;;;;;;;20.35;77.15;100733.78;2188644;79;21067;-70
2022/08/30 08:37:25;;;;;;;6.53;5.92;;;;;;;20.56;76.97;100732.66;2191920;79;21540;-69
2022/08/30 08:40:27;;;;;;;8.38;5.00;;;;;;;20.64;76.32;100734.24;2195148;80;21082;-69
2022/08/30 08:43:34;;;;;;;6.78;6.08;;;;;;;20.87;75.95;100735.03;2186298;80;20996;-69
2022/08/30 08:46:44;;;;;;;7.42;4.65;;;;;;;21.13;75.72;100737.49;2194993;79;21565;-70
2022/08/30 08:49:49;;;;;;;7.60;5.05;;;;;;;21.48;75.01;100732.92;2189519;79;21078;-69
2022/08/30 08:56:23;;;;;;;;;;;;;;;22.45;72.57;100741.65;2195194;80;20997;-70
2022/08/30 08:59:24;;;;;;;5.65;4.42;;;;;;;23.00;72.83;100742.28;2192861;79;20132;-70
2022/08/30 09:02:29;;;;;;;8.13;4.95;;;;;;;23.41;72.26;100734.28;2192733;80;20991;-71
2022/08/30 09:05:35;;;;;;;4.85;4.30;;;;;;;23.70;70.88;100738.73;2192620;79;21074;-69
2022/08/30 09:08:36;;;;;;;4.78;4.17;;;;;;;23.48;69.25;100731.74;2191230;80;21141;-70
2022/08/30 09:11:38;;;;;;;6.67;3.58;;;;;;;23.67;68.30;100733.75;2201727;80;21130;-69
2022/08/30 09:14:53;;;;;;;4.83;3.92;;;;;;;23.44;68.18;100729.20;2194294;80;21504;-71
2022/08/30 09:18:02;;;;;;;4.75;3.77;;;;;;;23.52;67.92;100730.73;2193133;80;21010;-69
2022/08/30 09:21:09;;;;;;;2.60;2.40;;;;;;;24.12;67.70;100729.55;2194435;79;20943;-69
2022/08/30 09:24:14;;;;;;;2.45;2.25;;;;;;;24.52;65.49;100724.61;2190934;80;20974;-70
2022/08/30 09:27:31;;;;;;;2.87;2.35;;;;;;;24.60;64.58;100729.64;2193511;80;21053;-69
2022/08/30 09:30:32;;;;;;;2.62;2.35;;;;;;;24.33;62.82;100732.94;2198168;79;21030;-69
2022/08/30 09:33:35;;;;;;;2.80;1.90;;;;;;;23.66;62.66;100734.83;2196602;80;21454;-69
2022/08/30 09:36:44;;;;;;;2.62;2.42;;;;;;;23.29;63.33;100733.47;2189186;80;20956;-71
2022/08/30 09:39:45;;;;;;;3.15;2.83;;;;;;;23.07;63.60;100736.75;2184962;79;21047;-73
2022/08/30 09:43:10;;;;;;;2.95;2.65;;;;;;;23.45;64.64;100728.66;2195707;80;21034;-71
2022/08/30 09:46:11;;;;;;;2.30;2.02;;;;;;;24.04;63.47;100725.32;2188037;79;21468;-70
2022/08/30 09:49:36;;;;;;;2.50;2.30;;;;;;;24.74;61.96;100719.30;2192120;80;21007;-69
2022/08/30 09:53:01;;;;;;;2.70;2.42;;;;;;;24.80;60.76;100721.83;2186986;79;21050;-72
2022/08/30 09:56:07;;;;;;;2.70;2.47;;;;;;;24.54;60.90;100721.95;2169755;80;21660;-70
2022/08/30 09:59:22;;;;;;;2.75;2.40;;;;;;;24.25;60.44;100721.13;2193292;80;21076;-69
2022/08/30 10:03:11;;;;;;;2.25;2.05;;;;;;;24.46;61.04;100709.31;2196828;79;20928;-71
2022/08/30 10:06:29;;;;;;;2.90;1.80;;;;;;;24.82;59.29;100711.56;2189126;80;21496;-69
2022/08/30 10:09:47;;;;;;;2.50;2.30;;;;;;;24.67;58.68;100717.29;2160893;79;20959;-70
2022/08/30 10:13:03;;;;;;;2.00;1.90;;;;;;;24.79;59.44;100703.10;2189162;80;20947;-70
2022/08/30 10:16:15;;;;;;;1.80;1.70;;;;;;;25.24;58.17;100703.00;2189048;79;21516;-69
2022/08/30 10:19:36;;;;;;;3.25;1.92;;;;;;;25.61;58.01;100701.05;2190791;80;21002;-71
2022/08/30 10:23:01;;;;;;;2.12;1.92;;;;;;;26.08;56.82;100699.73;2194302;79;21046;-70
2022/08/30 10:26:36;;;;;;;1.82;1.72;;;;;;;26.22;55.63;100699.61;2195398;80;21027;-69
2022/08/30 10:29:59;;;;;;;2.27;1.90;;;;;;;26.49;55.44;100697.40;2190471;79;20948;-70
2022/08/30 10:33:09;;;;;;;2.05;1.95;;;;;;;26.36;54.88;100695.94;2190124;79;20962;-70
2022/08/30 10:36:13;;;;;;;3.55;1.98;;;;;;;26.48;54.47;100693.05;2190719;79;21005;-69
2022/08/30 10:39:22;;;;;;;2.05;1.90;;;;;;;26.44;53.43;100700.06;2188394;80;21045;-70
2022/08/30 10:42:31;;;;;;;3.13;1.67;;;;;;;26.38;53.42;100695.97;2187969;80;21821;-70
2022/08/30 10:45:36;;;;;;;2.12;1.92;;;;;;;26.02;53.09;100690.70;2195340;79;21057;-69
2022/08/30 10:48:43;;;;;;;2.25;2.05;;;;;;;25.63;53.15;100692.11;2192519;80;20938;-70
2022/08/30 10:52:14;;;;;;;3.10;1.80;;;;;;;25.38;53.12;100689.89;2187147;79;21514;-69
2022/08/30 10:55:25;;;;;;;2.80;2.02;;;;;;;25.02;53.12;100694.77;2191329;79;21049;-69
2022/08/30 10:58:27;;;;;;;1.70;1.60;;;;;;;25.20;53.22;100684.73;2193228;79;20998;-70
2022/08/30 11:01:36;;;;;;;2.15;1.72;;;;;;;25.23;51.78;100689.15;2167567;80;21076;-70
2022/08/30 11:05:09;;;;;;;2.58;2.20;;;;;;;24.52;51.92;100680.67;2190110;80;21009;-69
2022/08/30 11:08:33;;;;;;;2.40;2.20;;;;;;;24.43;53.04;100682.15;2189716;80;21014;-70
2022/08/30 11:12:03;;;;;;;2.40;2.20;;;;;;;24.25;52.99;100682.36;2190997;79;21022;-68
2022/08/30 11:15:23;;;;;;;2.35;2.15;;;;;;;24.18;53.54;100675.70;2190431;80;21070;-68
2022/08/30 11:18:28;;;;;;;3.40;2.02;;;;;;;24.16;53.95;100685.45;2200565;79;21037;-68
2022/08/30 11:21:40;;;;;;;4.03;2.37;;;;;;;24.45;53.64;100670.53;2200256;80;20983;-68
2022/08/30 11:25:04;;;;;;;3.27;2.10;;;;;;;24.65;53.67;100674.66;2200090;79;20969;-69
2022/08/30 11:28:07;;;;;;;2.40;2.25;;;;;;;24.70;53.55;100667.42;2193374;80;21489;-67
2022/08/30 11:31:28;;;;;;;2.45;2.02;;;;;;;24.35;52.35;100671.13;2192660;79;21073;-69
2022/08/30 11:34:55;;;;;;;2.30;2.10;;;;;;;24.31;52.81;100668.63;2191492;80;20979;-71
2022/08/30 11:37:56;;;;;;;2.20;2.00;;;;;;;24.24;53.09;100669.30;2194233;80;20997;-68
2022/08/30 11:41:12;;;;;;;2.27;2.05;;;;;;;24.38;53.28;100665.75;2188553;79;21049;-68
2022/08/30 11:44:25;;;;;;;2.12;1.90;;;;;;;24.68;52.84;100661.41;2195848;80;20986;-68
2022/08/30 11:47:50;;;;;;;2.83;2.08;;;;;;;24.99;53.05;100661.88;2192916;79;20994;-69
2022/08/30 11:51:09;;;;;;;2.15;1.80;;;;;;;25.15;52.17;100662.96;2198698;79;20959;-69
2022/08/30 11:54:30;;;;;;;3.03;1.63;;;;;;;24.92;51.62;100655.28;2192873;79;21006;-68
2022/08/30 11:57:47;;;;;;;4.15;1.90;;;;;;;24.76;51.81;100658.83;2193928;80;20995;-68
2022/08/30 12:01:10;;;;;;;5.17;1.85;;;;;;;24.55;51.21;100658.51;2197108;79;21007;-69
2022/08/30 12:04:20;;;;;;;2.30;1.70;;;;;;;24.36;51.59;100652.99;2191613;80;21541;-68
2022/08/30 12:07:55;;;;;;;1.92;1.70;;;;;;;24.58;51.11;100648.52;2195896;79;21497;-68
2022/08/30 12:11:02;;;;;;;2.47;1.75;;;;;;;24.57;51.53;100645.50;2173331;79;21084;-69
2022/08/30 12:14:06;;;;;;;3.37;1.70;;;;;;;24.60;51.68;100645.00;2190590;79;21564;-68
2022/08/30 12:20:48;;;;;;;3.72;1.70;;;;;;;25.16;51.09;100633.37;2195205;79;20985;-72
2022/08/30 12:24:06;;;;;;;2.30;1.80;;;;;;;25.44;50.91;100639.98;2189277;80;21065;-68
2022/08/30 12:27:30;;;;;;;1.80;1.70;;;;;;;25.66;50.25;100637.27;2196988;79;20983;-69
2022/08/30 12:30:32;;;;;;;1.98;1.77;;;;;;;25.76;49.82;100638.44;2194693;79;20979;-69
2022/08/30 12:33:41;;;;;;;4.12;1.47;;;;;;;25.77;49.44;100628.69;2191474;79;21014;-68
2022/08/30 12:37:01;;;;;;;1.63;1.53;;;;;;;25.60;49.07;100630.13;2189927;80;21053;-68
2022/08/30 12:40:17;;;;;;;2.10;1.90;;;;;;;25.36;48.84;100623.31;2194597;79;21073;-68
2022/08/30 12:43:29;;;;;;;2.10;1.37;;;;;;;25.14;48.56;100625.97;2186795;80;20946;-68
2022/08/30 12:46:31;;;;;;;1.90;1.80;;;;;;;24.76;48.83;100626.27;2192177;79;21485;-69
2022/08/30 12:49:35;;;;;;;2.17;1.72;;;;;;;24.82;48.74;100623.91;2190109;80;21532;-68
2022/08/30 12:52:42;;;;;;;3.52;1.70;;;;;;;24.72;48.12;100622.38;2191122;79;21582;-69
2022/08/30 12:55:58;;;;;;;2.02;1.90;;;;;;;24.58;48.45;100621.90;2184959;79;21021;-68
2022/08/30 12:58:59;;;;;;;2.12;1.90;;;;;;;24.73;48.88;100615.91;2188088;79;21488;-70
2022/08/30 13:02:16;;;;;;;1.92;1.82;;;;;;;24.93;48.40;100611.31;2195276;79;21041;-72
2022/08/30 13:05:41;;;;;;;1.92;1.65;;;;;;;25.02;48.64;100605.73;2148257;80;21005;-68
2022/08/30 13:08:50;;;;;;;2.77;1.80;;;;;;;25.26;48.55;100605.00;2199683;79;21825;-73
2022/08/30 13:11:52;;;;;;;1.90;1.80;;;;;;;25.45;48.88;100602.77;2193619;79;21014;-68
2022/08/30 13:15:15;;;;;;;1.77;1.67;;;;;;;25.65;48.74;100605.73;2191303;79;21495;-68
2022/08/30 13:18:26;;;;;;;2.33;1.82;;;;;;;25.72;48.60;100606.34;2189033;80;21033;-70
2022/08/30 13:21:34;;;;;;;1.65;1.55;;;;;;;25.80;48.47;100605.08;2195906;80;20994;-68
2022/08/30 13:24:35;;;;;;;1.90;1.80;;;;;;;25.87;48.63;100596.19;2188306;79;20966;-68
2022/08/30 13:27:38;;;;;;;1.60;1.50;;;;;;;25.90;47.64;100596.22;2187400;80;20998;-68
2022/08/30 13:30:40;;;;;;;1.82;1.72;;;;;;;25.86;47.49;100595.11;2192050;79;21132;-68
2022/08/30 13:33:44;;;;;;;5.65;1.65;;;;;;;25.85;47.37;100594.84;2185539;80;20947;-69
2022/08/30 13:36:49;;;;;;;2.98;1.62;;;;;;;25.78;46.77;100592.27;2194547;80;21050;-68
2022/08/30 13:39:51;;;;;;;1.92;1.70;;;;;;;25.70;47.01;100590.01;2167900;79;20908;-68
2022/08/30 13:42:52;;;;;;;2.20;1.82;;;;;;;25.71;47.19;100592.48;2179116;80;21050;-68
2022/08/30 13:45:53;;;;;;;2.02;1.50;;;;;;;25.70;46.70;100588.65;2203013;80;20966;-68
2022/08/30 13:49:03;;;;;;;1.50;1.40;;;;;;;25.60;46.99;100581.77;2190579;79;20998;-69
2022/08/30 13:52:07;;;;;;;1.80;1.70;;;;;;;25.50;46.48;100581.92;2170301;79;21035;-68
2022/08/30 13:55:09;;;;;;;3.45;1.75;;;;;;;25.35;46.47;100570.08;2193798;79;20994;-71
2022/08/30 13:58:10;;;;;;;3.35;1.80;;;;;;;25.21;46.73;100581.31;2189355;79;21544;-68
2022/08/30 14:01:11;;;;;;;4.08;1.77;;;;;;;25.17;46.87;100584.77;2190919;80;21022;-68
2022/08/30 14:04:13;;;;;;;1.92;1.50;;;;;;;25.16;46.91;100581.23;2192499;80;20970;-67
2022/08/30 14:07:14;;;;;;;2.12;1.87;;;;;;;25.05;46.68;100575.36;2187401;79;20982;-69
2022/08/30 14:10:18;;;;;;;1.82;1.70;;;;;;;25.00;46.61;100577.49;2196980;79;21060;-67
2022/08/30 14:13:19;;;;;;;2.45;1.70;;;;;;;25.09;47.38;100572.95;2185555;80;20970;-68
2022/08/30 14:16:20;;;;;;;2.08;1.92;;;;;;;25.17;47.64;100571.20;2188634;79;21001;-67
2022/08/30 14:19:21;;;;;;;5.60;2.05;;;;;;;25.04;46.99;100569.13;2185724;80;21026;-67
2022/08/30 14:22:22;;;;;;;2.77;2.33;;;;;;;24.90;47.27;100563.77;2194604;79;21028;-72
2022/08/30 14:25:27;;;;;;;4.17;2.17;;;;;;;24.75;47.39;100559.48;2192502;79;20983;-69